sensor_id;sensor_type;location;lat;lon;timestamp;P1;durP1;ratioP1;P2;durP2;ratioP2
62798;SDS011;48842;51.046;13.796;2023-08-06T00:01:36;5.67;;;5.27;;
62798;SDS011;48842;51.046;13.796;2023-08-06T00:04:01;4.90;;;4.43;;
62798;SDS011;48842;51.046;13.796;2023-08-06T00:06:27;5.33;;;4.80;;
62798;SDS011;48842;51.046;13.796;2023-08-06T00:08:52;5.20;;;4.80;;
62798;SDS011;48842;51.046;13.796;2023-08-06T00:11:17;4.97;;;4.47;;
62798;SDS011;48842;51.046;13.796;2023-08-06T00:13:42;5.13;;;4.63;;
62798;SDS011;48842;51.046;13.796;2023-08-06T00:16:08;6.60;;;5.27;;
62798;SDS011;48842;51.046;13.796;2023-08-06T00:18:35;5.33;;;4.90;;
62798;SDS011;48842;51.046;13.796;2023-08-06T00:21:01;5.20;;;4.80;;
62798;SDS011;48842;51.046;13.796;2023-08-06T00:23:27;5.17;;;4.77;;
62798;SDS011;48842;51.046;13.796;2023-08-06T00:25:52;4.53;;;4.03;;
62798;SDS011;48842;51.046;13.796;2023-08-06T00:28:17;4.33;;;3.93;;
62798;SDS011;48842;51.046;13.796;2023-08-06T00:30:43;4.50;;;4.13;;
62798;SDS011;48842;51.046;13.796;2023-08-06T00:33:09;8.53;;;4.17;;
62798;SDS011;48842;51.046;13.796;2023-08-06T00:35:34;4.83;;;4.47;;
62798;SDS011;48842;51.046;13.796;2023-08-06T00:37:59;8.17;;;4.87;;
62798;SDS011;48842;51.046;13.796;2023-08-06T00:40:24;4.60;;;4.30;;
62798;SDS011;48842;51.046;13.796;2023-08-06T00:42:50;4.30;;;3.90;;
62798;SDS011;48842;51.046;13.796;2023-08-06T00:45:15;4.93;;;4.47;;
62798;SDS011;48842;51.046;13.796;2023-08-06T00:47:41;5.07;;;4.50;;
62798;SDS011;48842;51.046;13.796;2023-08-06T00:50:07;4.70;;;4.30;;
62798;SDS011;48842;51.046;13.796;2023-08-06T00:52:33;12.47;;;4.93;;
62798;SDS011;48842;51.046;13.796;2023-08-06T00:54:59;5.13;;;4.63;;
62798;SDS011;48842;51.046;13.796;2023-08-06T00:57:25;6.90;;;4.43;;
62798;SDS011;48842;51.046;13.796;2023-08-06T00:59:51;5.00;;;4.60;;
62798;SDS011;48842;51.046;13.796;2023-08-06T01:02:17;11.53;;;5.43;;
62798;SDS011;48842;51.046;13.796;2023-08-06T01:04:43;6.20;;;5.70;;
62798;SDS011;48842;51.046;13.796;2023-08-06T01:07:19;6.10;;;4.87;;
62798;SDS011;48842;51.046;13.796;2023-08-06T01:12:45;4.90;;;4.60;;
62798;SDS011;48842;51.046;13.796;2023-08-06T01:15:30;5.47;;;5.07;;
62798;SDS011;48842;51.046;13.796;2023-08-06T01:17:59;5.70;;;4.50;;
62798;SDS011;48842;51.046;13.796;2023-08-06T01:20:29;5.80;;;4.40;;
62798;SDS011;48842;51.046;13.796;2023-08-06T01:22:55;4.73;;;4.10;;
62798;SDS011;48842;51.046;13.796;2023-08-06T01:25:20;4.93;;;4.60;;
62798;SDS011;48842;51.046;13.796;2023-08-06T01:27:51;4.70;;;4.30;;
62798;SDS011;48842;51.046;13.796;2023-08-06T01:30:25;4.30;;;4.00;;
62798;SDS011;48842;51.046;13.796;2023-08-06T01:32:57;5.10;;;3.63;;
62798;SDS011;48842;51.046;13.796;2023-08-06T01:35:25;3.77;;;3.47;;
62798;SDS011;48842;51.046;13.796;2023-08-06T01:37:52;4.73;;;4.33;;
62798;SDS011;48842;51.046;13.796;2023-08-06T01:40:18;4.03;;;3.73;;
62798;SDS011;48842;51.046;13.796;2023-08-06T01:42:43;4.17;;;3.90;;
62798;SDS011;48842;51.046;13.796;2023-08-06T01:45:08;3.83;;;3.53;;
62798;SDS011;48842;51.046;13.796;2023-08-06T01:47:35;5.03;;;4.60;;
62798;SDS011;48842;51.046;13.796;2023-08-06T01:50:00;4.57;;;4.27;;
62798;SDS011;48842;51.046;13.796;2023-08-06T01:52:26;5.40;;;4.90;;
62798;SDS011;48842;51.046;13.796;2023-08-06T01:54:52;6.90;;;5.93;;
62798;SDS011;48842;51.046;13.796;2023-08-06T01:57:17;5.20;;;4.70;;
62798;SDS011;48842;51.046;13.796;2023-08-06T01:59:42;5.00;;;4.70;;
62798;SDS011;48842;51.046;13.796;2023-08-06T02:02:08;5.20;;;4.90;;
62798;SDS011;48842;51.046;13.796;2023-08-06T02:04:33;4.40;;;4.13;;
62798;SDS011;48842;51.046;13.796;2023-08-06T02:06:59;6.40;;;5.10;;
62798;SDS011;48842;51.046;13.796;2023-08-06T02:09:25;4.40;;;4.10;;
62798;SDS011;48842;51.046;13.796;2023-08-06T02:11:50;5.63;;;4.20;;
62798;SDS011;48842;51.046;13.796;2023-08-06T02:14:15;4.73;;;4.43;;
62798;SDS011;48842;51.046;13.796;2023-08-06T02:16:40;5.33;;;4.83;;
62798;SDS011;48842;51.046;13.796;2023-08-06T02:19:06;5.63;;;5.23;;
62798;SDS011;48842;51.046;13.796;2023-08-06T02:21:31;5.60;;;5.20;;
62798;SDS011;48842;51.046;13.796;2023-08-06T02:23:56;5.57;;;5.07;;
62798;SDS011;48842;51.046;13.796;2023-08-06T02:26:22;5.37;;;4.97;;
62798;SDS011;48842;51.046;13.796;2023-08-06T02:28:47;5.60;;;4.97;;
62798;SDS011;48842;51.046;13.796;2023-08-06T02:31:12;6.13;;;4.93;;
62798;SDS011;48842;51.046;13.796;2023-08-06T02:33:37;4.73;;;4.43;;
62798;SDS011;48842;51.046;13.796;2023-08-06T02:36:03;5.37;;;4.87;;
62798;SDS011;48842;51.046;13.796;2023-08-06T02:38:29;5.07;;;4.67;;
62798;SDS011;48842;51.046;13.796;2023-08-06T02:40:55;3.87;;;3.57;;
62798;SDS011;48842;51.046;13.796;2023-08-06T02:43:20;4.57;;;4.00;;
62798;SDS011;48842;51.046;13.796;2023-08-06T02:45:45;4.03;;;3.83;;
62798;SDS011;48842;51.046;13.796;2023-08-06T02:48:11;4.87;;;4.57;;
62798;SDS011;48842;51.046;13.796;2023-08-06T02:50:39;5.37;;;4.97;;
62798;SDS011;48842;51.046;13.796;2023-08-06T02:53:06;9.50;;;4.40;;
62798;SDS011;48842;51.046;13.796;2023-08-06T02:55:32;5.83;;;4.43;;
62798;SDS011;48842;51.046;13.796;2023-08-06T02:57:59;4.93;;;4.40;;
62798;SDS011;48842;51.046;13.796;2023-08-06T03:00:26;7.67;;;4.87;;
62798;SDS011;48842;51.046;13.796;2023-08-06T03:02:52;5.83;;;5.13;;
62798;SDS011;48842;51.046;13.796;2023-08-06T03:05:19;5.60;;;5.10;;
62798;SDS011;48842;51.046;13.796;2023-08-06T03:07:44;4.73;;;4.37;;
62798;SDS011;48842;51.046;13.796;2023-08-06T03:10:10;7.40;;;5.10;;
62798;SDS011;48842;51.046;13.796;2023-08-06T03:12:35;5.30;;;4.90;;
62798;SDS011;48842;51.046;13.796;2023-08-06T03:15:00;5.53;;;5.13;;
62798;SDS011;48842;51.046;13.796;2023-08-06T03:17:26;5.10;;;4.60;;
62798;SDS011;48842;51.046;13.796;2023-08-06T03:19:51;5.20;;;4.80;;
62798;SDS011;48842;51.046;13.796;2023-08-06T03:22:16;5.70;;;4.73;;
62798;SDS011;48842;51.046;13.796;2023-08-06T03:24:41;5.77;;;5.20;;
62798;SDS011;48842;51.046;13.796;2023-08-06T03:27:07;5.63;;;4.40;;
62798;SDS011;48842;51.046;13.796;2023-08-06T03:29:32;5.17;;;4.77;;
62798;SDS011;48842;51.046;13.796;2023-08-06T03:31:58;6.30;;;4.40;;
62798;SDS011;48842;51.046;13.796;2023-08-06T03:34:23;4.93;;;4.63;;
62798;SDS011;48842;51.046;13.796;2023-08-06T03:36:48;5.40;;;4.03;;
62798;SDS011;48842;51.046;13.796;2023-08-06T03:39:15;6.37;;;4.53;;
62798;SDS011;48842;51.046;13.796;2023-08-06T03:41:40;4.40;;;4.03;;
62798;SDS011;48842;51.046;13.796;2023-08-06T03:44:05;5.70;;;4.63;;
62798;SDS011;48842;51.046;13.796;2023-08-06T03:46:31;4.90;;;4.50;;
62798;SDS011;48842;51.046;13.796;2023-08-06T03:48:58;4.80;;;4.40;;
62798;SDS011;48842;51.046;13.796;2023-08-06T03:51:27;8.07;;;4.47;;
62798;SDS011;48842;51.046;13.796;2023-08-06T03:53:52;4.87;;;4.37;;
62798;SDS011;48842;51.046;13.796;2023-08-06T03:56:17;4.57;;;4.20;;
62798;SDS011;48842;51.046;13.796;2023-08-06T03:58:43;4.30;;;4.00;;
62798;SDS011;48842;51.046;13.796;2023-08-06T04:01:08;3.80;;;3.50;;
62798;SDS011;48842;51.046;13.796;2023-08-06T04:03:34;4.10;;;3.87;;
62798;SDS011;48842;51.046;13.796;2023-08-06T04:05:59;4.33;;;3.63;;
62798;SDS011;48842;51.046;13.796;2023-08-06T04:08:26;3.60;;;3.40;;
62798;SDS011;48842;51.046;13.796;2023-08-06T04:10:52;3.90;;;3.60;;
62798;SDS011;48842;51.046;13.796;2023-08-06T04:13:17;3.93;;;3.43;;
62798;SDS011;48842;51.046;13.796;2023-08-06T04:15:43;4.10;;;3.70;;
62798;SDS011;48842;51.046;13.796;2023-08-06T04:18:08;4.80;;;4.43;;
62798;SDS011;48842;51.046;13.796;2023-08-06T04:20:34;3.80;;;3.60;;
62798;SDS011;48842;51.046;13.796;2023-08-06T04:22:59;3.70;;;3.40;;
62798;SDS011;48842;51.046;13.796;2023-08-06T04:25:31;4.00;;;3.70;;
62798;SDS011;48842;51.046;13.796;2023-08-06T04:27:56;4.07;;;3.57;;
62798;SDS011;48842;51.046;13.796;2023-08-06T04:30:21;3.90;;;3.70;;
62798;SDS011;48842;51.046;13.796;2023-08-06T04:32:47;3.80;;;3.50;;
62798;SDS011;48842;51.046;13.796;2023-08-06T04:35:12;3.40;;;3.00;;
62798;SDS011;48842;51.046;13.796;2023-08-06T04:37:37;3.60;;;3.03;;
62798;SDS011;48842;51.046;13.796;2023-08-06T04:40:02;3.53;;;3.33;;
62798;SDS011;48842;51.046;13.796;2023-08-06T04:42:28;3.43;;;3.17;;
62798;SDS011;48842;51.046;13.796;2023-08-06T04:44:54;3.07;;;2.87;;
62798;SDS011;48842;51.046;13.796;2023-08-06T04:47:19;3.40;;;3.10;;
62798;SDS011;48842;51.046;13.796;2023-08-06T04:49:44;3.37;;;3.17;;
62798;SDS011;48842;51.046;13.796;2023-08-06T04:52:09;4.30;;;4.00;;
62798;SDS011;48842;51.046;13.796;2023-08-06T04:54:35;3.87;;;3.67;;
62798;SDS011;48842;51.046;13.796;2023-08-06T04:57:00;4.50;;;4.10;;
62798;SDS011;48842;51.046;13.796;2023-08-06T04:59:25;3.90;;;3.60;;
62798;SDS011;48842;51.046;13.796;2023-08-06T05:01:51;3.83;;;3.60;;
62798;SDS011;48842;51.046;13.796;2023-08-06T05:04:16;3.43;;;3.23;;
62798;SDS011;48842;51.046;13.796;2023-08-06T05:06:41;4.07;;;3.87;;
62798;SDS011;48842;51.046;13.796;2023-08-06T05:09:06;3.83;;;3.53;;
62798;SDS011;48842;51.046;13.796;2023-08-06T05:11:32;3.97;;;3.57;;
62798;SDS011;48842;51.046;13.796;2023-08-06T05:13:57;3.90;;;3.60;;
62798;SDS011;48842;51.046;13.796;2023-08-06T05:16:23;4.17;;;3.87;;
62798;SDS011;48842;51.046;13.796;2023-08-06T05:18:49;3.50;;;3.40;;
62798;SDS011;48842;51.046;13.796;2023-08-06T05:21:14;4.30;;;3.17;;
62798;SDS011;48842;51.046;13.796;2023-08-06T05:23:41;3.27;;;3.07;;
62798;SDS011;48842;51.046;13.796;2023-08-06T05:26:06;3.13;;;3.03;;
62798;SDS011;48842;51.046;13.796;2023-08-06T05:28:31;3.43;;;3.03;;
62798;SDS011;48842;51.046;13.796;2023-08-06T05:30:56;2.97;;;2.87;;
62798;SDS011;48842;51.046;13.796;2023-08-06T05:33:22;2.77;;;2.67;;
62798;SDS011;48842;51.046;13.796;2023-08-06T05:35:48;3.13;;;2.80;;
62798;SDS011;48842;51.046;13.796;2023-08-06T05:38:16;2.80;;;2.70;;
62798;SDS011;48842;51.046;13.796;2023-08-06T05:40:42;2.80;;;2.70;;
62798;SDS011;48842;51.046;13.796;2023-08-06T05:43:08;2.60;;;2.40;;
62798;SDS011;48842;51.046;13.796;2023-08-06T05:45:33;2.53;;;2.33;;
62798;SDS011;48842;51.046;13.796;2023-08-06T05:47:58;2.80;;;2.70;;
62798;SDS011;48842;51.046;13.796;2023-08-06T05:50:23;2.83;;;2.63;;
62798;SDS011;48842;51.046;13.796;2023-08-06T05:52:49;2.63;;;2.53;;
62798;SDS011;48842;51.046;13.796;2023-08-06T05:55:14;3.37;;;3.17;;
62798;SDS011;48842;51.046;13.796;2023-08-06T05:57:40;4.20;;;3.80;;
62798;SDS011;48842;51.046;13.796;2023-08-06T06:00:05;3.30;;;3.13;;
62798;SDS011;48842;51.046;13.796;2023-08-06T06:02:31;2.97;;;2.77;;
62798;SDS011;48842;51.046;13.796;2023-08-06T06:04:57;3.13;;;2.93;;
62798;SDS011;48842;51.046;13.796;2023-08-06T06:07:22;3.03;;;2.87;;
62798;SDS011;48842;51.046;13.796;2023-08-06T06:09:47;3.20;;;3.00;;
62798;SDS011;48842;51.046;13.796;2023-08-06T06:12:14;3.50;;;3.20;;
62798;SDS011;48842;51.046;13.796;2023-08-06T06:14:39;3.60;;;3.30;;
62798;SDS011;48842;51.046;13.796;2023-08-06T06:17:04;2.73;;;2.53;;
62798;SDS011;48842;51.046;13.796;2023-08-06T06:19:29;2.40;;;2.30;;
62798;SDS011;48842;51.046;13.796;2023-08-06T06:21:55;3.20;;;2.60;;
62798;SDS011;48842;51.046;13.796;2023-08-06T06:24:22;3.37;;;2.53;;
62798;SDS011;48842;51.046;13.796;2023-08-06T06:26:47;2.50;;;2.40;;
62798;SDS011;48842;51.046;13.796;2023-08-06T06:29:13;2.80;;;2.70;;
62798;SDS011;48842;51.046;13.796;2023-08-06T06:31:38;3.13;;;3.00;;
62798;SDS011;48842;51.046;13.796;2023-08-06T06:34:03;2.43;;;2.30;;
62798;SDS011;48842;51.046;13.796;2023-08-06T06:36:28;2.80;;;2.70;;
62798;SDS011;48842;51.046;13.796;2023-08-06T06:38:54;2.50;;;2.40;;
62798;SDS011;48842;51.046;13.796;2023-08-06T06:41:19;2.60;;;2.40;;
62798;SDS011;48842;51.046;13.796;2023-08-06T06:43:44;2.97;;;2.67;;
62798;SDS011;48842;51.046;13.796;2023-08-06T06:46:10;3.33;;;3.13;;
62798;SDS011;48842;51.046;13.796;2023-08-06T06:48:35;3.23;;;3.03;;
62798;SDS011;48842;51.046;13.796;2023-08-06T06:51:00;3.77;;;3.57;;
62798;SDS011;48842;51.046;13.796;2023-08-06T06:53:26;3.20;;;3.00;;
62798;SDS011;48842;51.046;13.796;2023-08-06T06:55:56;4.27;;;3.67;;
62798;SDS011;48842;51.046;13.796;2023-08-06T06:58:27;4.17;;;3.87;;
62798;SDS011;48842;51.046;13.796;2023-08-06T07:00:52;4.20;;;3.90;;
62798;SDS011;48842;51.046;13.796;2023-08-06T07:03:17;4.50;;;4.20;;
62798;SDS011;48842;51.046;13.796;2023-08-06T07:05:44;4.57;;;4.37;;
62798;SDS011;48842;51.046;13.796;2023-08-06T07:08:09;3.77;;;3.47;;
62798;SDS011;48842;51.046;13.796;2023-08-06T07:10:35;4.03;;;3.77;;
62798;SDS011;48842;51.046;13.796;2023-08-06T07:13:00;4.13;;;3.73;;
62798;SDS011;48842;51.046;13.796;2023-08-06T07:15:25;4.23;;;3.93;;
62798;SDS011;48842;51.046;13.796;2023-08-06T07:17:50;3.67;;;3.33;;
62798;SDS011;48842;51.046;13.796;2023-08-06T07:20:16;4.27;;;3.93;;
62798;SDS011;48842;51.046;13.796;2023-08-06T07:22:41;5.13;;;4.60;;
62798;SDS011;48842;51.046;13.796;2023-08-06T07:25:07;5.53;;;4.10;;
62798;SDS011;48842;51.046;13.796;2023-08-06T07:27:33;4.20;;;3.90;;
62798;SDS011;48842;51.046;13.796;2023-08-06T07:29:58;4.70;;;4.30;;
62798;SDS011;48842;51.046;13.796;2023-08-06T07:32:24;5.43;;;4.67;;
62798;SDS011;48842;51.046;13.796;2023-08-06T07:34:49;6.40;;;4.83;;
62798;SDS011;48842;51.046;13.796;2023-08-06T07:37:14;6.00;;;5.37;;
62798;SDS011;48842;51.046;13.796;2023-08-06T07:39:40;5.43;;;5.03;;
62798;SDS011;48842;51.046;13.796;2023-08-06T07:42:06;5.40;;;4.90;;
62798;SDS011;48842;51.046;13.796;2023-08-06T07:44:32;6.03;;;5.40;;
62798;SDS011;48842;51.046;13.796;2023-08-06T07:46:57;5.47;;;5.03;;
62798;SDS011;48842;51.046;13.796;2023-08-06T07:49:22;5.43;;;5.03;;
62798;SDS011;48842;51.046;13.796;2023-08-06T07:51:48;6.97;;;6.30;;
62798;SDS011;48842;51.046;13.796;2023-08-06T07:54:13;5.70;;;5.00;;
62798;SDS011;48842;51.046;13.796;2023-08-06T07:56:38;5.50;;;5.10;;
62798;SDS011;48842;51.046;13.796;2023-08-06T07:59:04;5.23;;;4.60;;
62798;SDS011;48842;51.046;13.796;2023-08-06T08:01:29;5.13;;;4.70;;
62798;SDS011;48842;51.046;13.796;2023-08-06T08:03:54;6.00;;;4.37;;
62798;SDS011;48842;51.046;13.796;2023-08-06T08:06:19;4.60;;;4.20;;
62798;SDS011;48842;51.046;13.796;2023-08-06T08:08:45;5.10;;;4.60;;
62798;SDS011;48842;51.046;13.796;2023-08-06T08:11:10;5.30;;;4.40;;
62798;SDS011;48842;51.046;13.796;2023-08-06T08:13:36;7.10;;;4.23;;
62798;SDS011;48842;51.046;13.796;2023-08-06T08:16:01;9.67;;;4.93;;
62798;SDS011;48842;51.046;13.796;2023-08-06T08:18:26;7.00;;;3.67;;
62798;SDS011;48842;51.046;13.796;2023-08-06T08:20:52;4.67;;;4.37;;
62798;SDS011;48842;51.046;13.796;2023-08-06T08:23:17;15.73;;;4.10;;
62798;SDS011;48842;51.046;13.796;2023-08-06T08:25:43;8.40;;;5.10;;
62798;SDS011;48842;51.046;13.796;2023-08-06T08:28:08;4.63;;;4.23;;
62798;SDS011;48842;51.046;13.796;2023-08-06T08:30:33;5.10;;;4.37;;
62798;SDS011;48842;51.046;13.796;2023-08-06T08:32:58;3.93;;;3.60;;
62798;SDS011;48842;51.046;13.796;2023-08-06T08:35:24;4.70;;;3.60;;
62798;SDS011;48842;51.046;13.796;2023-08-06T08:37:49;3.83;;;3.53;;
62798;SDS011;48842;51.046;13.796;2023-08-06T08:40:15;4.33;;;3.90;;
62798;SDS011;48842;51.046;13.796;2023-08-06T08:42:41;4.17;;;3.80;;
62798;SDS011;48842;51.046;13.796;2023-08-06T08:45:10;3.83;;;3.53;;
62798;SDS011;48842;51.046;13.796;2023-08-06T08:47:38;3.20;;;3.00;;
62798;SDS011;48842;51.046;13.796;2023-08-06T08:50:06;4.20;;;3.90;;
62798;SDS011;48842;51.046;13.796;2023-08-06T08:52:33;7.07;;;3.70;;
62798;SDS011;48842;51.046;13.796;2023-08-06T08:54:59;3.60;;;3.27;;
62798;SDS011;48842;51.046;13.796;2023-08-06T08:57:26;2.60;;;2.50;;
62798;SDS011;48842;51.046;13.796;2023-08-06T08:59:52;3.10;;;2.80;;
62798;SDS011;48842;51.046;13.796;2023-08-06T09:02:17;3.07;;;2.77;;
62798;SDS011;48842;51.046;13.796;2023-08-06T09:04:46;3.13;;;2.87;;
62798;SDS011;48842;51.046;13.796;2023-08-06T09:07:13;2.80;;;2.60;;
62798;SDS011;48842;51.046;13.796;2023-08-06T09:09:43;4.87;;;2.90;;
62798;SDS011;48842;51.046;13.796;2023-08-06T09:12:12;2.97;;;2.77;;
62798;SDS011;48842;51.046;13.796;2023-08-06T09:14:39;2.87;;;2.27;;
62798;SDS011;48842;51.046;13.796;2023-08-06T09:17:05;2.50;;;2.40;;
62798;SDS011;48842;51.046;13.796;2023-08-06T09:19:31;2.57;;;2.47;;
62798;SDS011;48842;51.046;13.796;2023-08-06T09:21:57;3.20;;;2.90;;
62798;SDS011;48842;51.046;13.796;2023-08-06T09:24:22;2.63;;;2.47;;
62798;SDS011;48842;51.046;13.796;2023-08-06T09:26:48;2.37;;;2.17;;
62798;SDS011;48842;51.046;13.796;2023-08-06T09:29:13;2.53;;;2.33;;
62798;SDS011;48842;51.046;13.796;2023-08-06T09:34:17;3.07;;;2.33;;
62798;SDS011;48842;51.046;13.796;2023-08-06T09:36:46;4.00;;;2.97;;
62798;SDS011;48842;51.046;13.796;2023-08-06T09:39:15;2.60;;;2.40;;
62798;SDS011;48842;51.046;13.796;2023-08-06T09:41:42;3.07;;;2.87;;
62798;SDS011;48842;51.046;13.796;2023-08-06T09:44:14;3.47;;;3.27;;
62798;SDS011;48842;51.046;13.796;2023-08-06T09:46:42;3.93;;;3.60;;
62798;SDS011;48842;51.046;13.796;2023-08-06T09:49:07;3.33;;;2.47;;
62798;SDS011;48842;51.046;13.796;2023-08-06T09:51:33;2.70;;;2.57;;
62798;SDS011;48842;51.046;13.796;2023-08-06T09:53:59;3.20;;;3.00;;
62798;SDS011;48842;51.046;13.796;2023-08-06T09:56:26;3.50;;;3.30;;
62798;SDS011;48842;51.046;13.796;2023-08-06T09:58:53;3.70;;;3.50;;
62798;SDS011;48842;51.046;13.796;2023-08-06T10:01:20;3.03;;;2.93;;
62798;SDS011;48842;51.046;13.796;2023-08-06T10:03:47;2.83;;;2.73;;
62798;SDS011;48842;51.046;13.796;2023-08-06T10:06:14;3.53;;;3.23;;
62798;SDS011;48842;51.046;13.796;2023-08-06T10:08:39;3.40;;;3.10;;
62798;SDS011;48842;51.046;13.796;2023-08-06T10:11:07;4.80;;;3.10;;
62798;SDS011;48842;51.046;13.796;2023-08-06T10:13:33;5.10;;;3.03;;
62798;SDS011;48842;51.046;13.796;2023-08-06T10:15:59;3.20;;;3.00;;
62798;SDS011;48842;51.046;13.796;2023-08-06T10:18:27;2.80;;;2.70;;
62798;SDS011;48842;51.046;13.796;2023-08-06T10:20:53;3.23;;;3.03;;
62798;SDS011;48842;51.046;13.796;2023-08-06T10:23:19;3.60;;;3.30;;
62798;SDS011;48842;51.046;13.796;2023-08-06T10:25:46;2.60;;;2.50;;
62798;SDS011;48842;51.046;13.796;2023-08-06T10:28:20;3.13;;;2.70;;
62798;SDS011;48842;51.046;13.796;2023-08-06T10:30:46;3.40;;;3.10;;
62798;SDS011;48842;51.046;13.796;2023-08-06T10:33:12;2.77;;;2.60;;
62798;SDS011;48842;51.046;13.796;2023-08-06T10:35:42;4.23;;;2.83;;
62798;SDS011;48842;51.046;13.796;2023-08-06T10:38:21;2.37;;;2.27;;
62798;SDS011;48842;51.046;13.796;2023-08-06T10:40:48;3.23;;;3.07;;
62798;SDS011;48842;51.046;13.796;2023-08-06T10:43:34;3.90;;;3.43;;
62798;SDS011;48842;51.046;13.796;2023-08-06T10:46:03;2.80;;;2.70;;
62798;SDS011;48842;51.046;13.796;2023-08-06T10:48:35;3.23;;;3.03;;
62798;SDS011;48842;51.046;13.796;2023-08-06T10:51:02;2.70;;;2.60;;
62798;SDS011;48842;51.046;13.796;2023-08-06T10:53:28;3.10;;;2.90;;
62798;SDS011;48842;51.046;13.796;2023-08-06T10:55:53;9.20;;;3.00;;
62798;SDS011;48842;51.046;13.796;2023-08-06T10:58:18;3.03;;;2.83;;
62798;SDS011;48842;51.046;13.796;2023-08-06T11:00:44;3.00;;;2.80;;
62798;SDS011;48842;51.046;13.796;2023-08-06T11:03:09;2.53;;;2.43;;
62798;SDS011;48842;51.046;13.796;2023-08-06T11:05:35;5.77;;;2.70;;
62798;SDS011;48842;51.046;13.796;2023-08-06T11:08:00;2.40;;;2.30;;
62798;SDS011;48842;51.046;13.796;2023-08-06T11:10:26;3.07;;;2.87;;
62798;SDS011;48842;51.046;13.796;2023-08-06T11:12:51;2.60;;;2.40;;
62798;SDS011;48842;51.046;13.796;2023-08-06T11:15:16;2.37;;;2.20;;
62798;SDS011;48842;51.046;13.796;2023-08-06T11:17:42;3.10;;;2.30;;
62798;SDS011;48842;51.046;13.796;2023-08-06T11:20:07;2.43;;;2.23;;
62798;SDS011;48842;51.046;13.796;2023-08-06T11:22:34;2.53;;;2.37;;
62798;SDS011;48842;51.046;13.796;2023-08-06T11:25:01;2.90;;;2.70;;
62798;SDS011;48842;51.046;13.796;2023-08-06T11:27:26;2.67;;;2.43;;
62798;SDS011;48842;51.046;13.796;2023-08-06T11:29:52;2.53;;;2.40;;
62798;SDS011;48842;51.046;13.796;2023-08-06T11:32:17;2.50;;;2.30;;
62798;SDS011;48842;51.046;13.796;2023-08-06T11:34:43;2.30;;;2.20;;
62798;SDS011;48842;51.046;13.796;2023-08-06T11:37:08;2.40;;;2.30;;
62798;SDS011;48842;51.046;13.796;2023-08-06T11:39:35;2.97;;;2.43;;
62798;SDS011;48842;51.046;13.796;2023-08-06T11:42:02;2.30;;;2.20;;
62798;SDS011;48842;51.046;13.796;2023-08-06T11:44:32;2.63;;;2.53;;
62798;SDS011;48842;51.046;13.796;2023-08-06T11:46:59;2.53;;;2.37;;
62798;SDS011;48842;51.046;13.796;2023-08-06T11:49:42;2.70;;;2.50;;
62798;SDS011;48842;51.046;13.796;2023-08-06T11:52:10;6.00;;;2.47;;
62798;SDS011;48842;51.046;13.796;2023-08-06T11:57:35;2.47;;;2.27;;
62798;SDS011;48842;51.046;13.796;2023-08-06T12:00:05;5.00;;;3.10;;
62798;SDS011;48842;51.046;13.796;2023-08-06T12:02:42;4.23;;;2.33;;
62798;SDS011;48842;51.046;13.796;2023-08-06T12:05:15;2.60;;;2.40;;
62798;SDS011;48842;51.046;13.796;2023-08-06T12:07:43;2.90;;;2.70;;
62798;SDS011;48842;51.046;13.796;2023-08-06T12:10:09;2.77;;;2.67;;
62798;SDS011;48842;51.046;13.796;2023-08-06T12:12:35;3.33;;;2.57;;
62798;SDS011;48842;51.046;13.796;2023-08-06T12:15:01;2.70;;;2.50;;
62798;SDS011;48842;51.046;13.796;2023-08-06T12:17:26;4.23;;;2.60;;
62798;SDS011;48842;51.046;13.796;2023-08-06T12:19:52;3.03;;;2.80;;
62798;SDS011;48842;51.046;13.796;2023-08-06T12:22:20;2.70;;;2.50;;
62798;SDS011;48842;51.046;13.796;2023-08-06T12:24:45;5.83;;;2.73;;
62798;SDS011;48842;51.046;13.796;2023-08-06T12:27:12;2.63;;;2.53;;
62798;SDS011;48842;51.046;13.796;2023-08-06T12:29:42;2.63;;;2.53;;
62798;SDS011;48842;51.046;13.796;2023-08-06T12:32:11;3.00;;;2.70;;
62798;SDS011;48842;51.046;13.796;2023-08-06T12:34:37;4.40;;;2.60;;
62798;SDS011;48842;51.046;13.796;2023-08-06T12:37:07;3.10;;;2.90;;
62798;SDS011;48842;51.046;13.796;2023-08-06T12:39:32;2.50;;;2.40;;
62798;SDS011;48842;51.046;13.796;2023-08-06T12:42:02;2.73;;;2.53;;
62798;SDS011;48842;51.046;13.796;2023-08-06T12:44:28;3.03;;;2.73;;
62798;SDS011;48842;51.046;13.796;2023-08-06T12:46:54;2.53;;;2.43;;
62798;SDS011;48842;51.046;13.796;2023-08-06T12:49:19;3.30;;;3.10;;
62798;SDS011;48842;51.046;13.796;2023-08-06T12:51:46;2.53;;;2.30;;
62798;SDS011;48842;51.046;13.796;2023-08-06T12:54:12;2.90;;;2.43;;
62798;SDS011;48842;51.046;13.796;2023-08-06T12:56:37;3.40;;;3.20;;
62798;SDS011;48842;51.046;13.796;2023-08-06T12:59:02;3.43;;;3.20;;
62798;SDS011;48842;51.046;13.796;2023-08-06T13:01:28;5.97;;;2.80;;
62798;SDS011;48842;51.046;13.796;2023-08-06T13:03:53;3.10;;;2.70;;
62798;SDS011;48842;51.046;13.796;2023-08-06T13:06:18;3.30;;;3.00;;
62798;SDS011;48842;51.046;13.796;2023-08-06T13:08:43;4.67;;;3.20;;
62798;SDS011;48842;51.046;13.796;2023-08-06T13:11:09;3.57;;;3.27;;
62798;SDS011;48842;51.046;13.796;2023-08-06T13:13:34;2.50;;;2.40;;
62798;SDS011;48842;51.046;13.796;2023-08-06T13:15:59;2.70;;;2.60;;
62798;SDS011;48842;51.046;13.796;2023-08-06T13:18:25;3.00;;;2.80;;
62798;SDS011;48842;51.046;13.796;2023-08-06T13:20:52;3.13;;;2.93;;
62798;SDS011;48842;51.046;13.796;2023-08-06T13:23:19;2.80;;;2.60;;
62798;SDS011;48842;51.046;13.796;2023-08-06T13:25:44;2.97;;;2.77;;
62798;SDS011;48842;51.046;13.796;2023-08-06T13:28:10;3.10;;;2.90;;
62798;SDS011;48842;51.046;13.796;2023-08-06T13:30:35;5.47;;;2.83;;
62798;SDS011;48842;51.046;13.796;2023-08-06T13:33:06;3.43;;;2.73;;
62798;SDS011;48842;51.046;13.796;2023-08-06T13:35:32;3.47;;;2.33;;
62798;SDS011;48842;51.046;13.796;2023-08-06T13:37:57;2.00;;;1.90;;
62798;SDS011;48842;51.046;13.796;2023-08-06T13:40:23;2.13;;;2.03;;
62798;SDS011;48842;51.046;13.796;2023-08-06T13:42:48;1.80;;;1.70;;
62798;SDS011;48842;51.046;13.796;2023-08-06T13:45:13;2.00;;;1.90;;
62798;SDS011;48842;51.046;13.796;2023-08-06T13:47:38;2.30;;;2.10;;
62798;SDS011;48842;51.046;13.796;2023-08-06T13:50:05;2.60;;;2.50;;
62798;SDS011;48842;51.046;13.796;2023-08-06T13:52:31;2.57;;;2.37;;
62798;SDS011;48842;51.046;13.796;2023-08-06T13:54:56;2.43;;;2.23;;
62798;SDS011;48842;51.046;13.796;2023-08-06T13:57:22;2.10;;;2.00;;
62798;SDS011;48842;51.046;13.796;2023-08-06T13:59:47;3.30;;;2.53;;
62798;SDS011;48842;51.046;13.796;2023-08-06T14:02:12;1.70;;;1.60;;
62798;SDS011;48842;51.046;13.796;2023-08-06T14:04:37;2.17;;;2.07;;
62798;SDS011;48842;51.046;13.796;2023-08-06T14:07:03;2.20;;;2.00;;
62798;SDS011;48842;51.046;13.796;2023-08-06T14:09:29;2.23;;;2.13;;
62798;SDS011;48842;51.046;13.796;2023-08-06T14:11:54;2.20;;;1.90;;
62798;SDS011;48842;51.046;13.796;2023-08-06T14:14:20;3.23;;;1.90;;
62798;SDS011;48842;51.046;13.796;2023-08-06T14:16:50;5.90;;;2.30;;
62798;SDS011;48842;51.046;13.796;2023-08-06T14:19:16;2.17;;;2.07;;
62798;SDS011;48842;51.046;13.796;2023-08-06T14:21:41;2.33;;;2.20;;
62798;SDS011;48842;51.046;13.796;2023-08-06T14:24:06;1.80;;;1.70;;
62798;SDS011;48842;51.046;13.796;2023-08-06T14:26:32;2.50;;;2.40;;
62798;SDS011;48842;51.046;13.796;2023-08-06T14:28:57;3.03;;;2.40;;
62798;SDS011;48842;51.046;13.796;2023-08-06T14:31:22;2.50;;;2.40;;
62798;SDS011;48842;51.046;13.796;2023-08-06T14:33:48;2.53;;;2.33;;
62798;SDS011;48842;51.046;13.796;2023-08-06T14:36:14;2.20;;;2.10;;